LLBG/TLV METAR and TAF weather

Enter ICAO airport designator
Station Type Date Time Source
LLBG METAR 2018/12/15 01:50 UTC NOAA

LLBG 150150Z 10014KT CAVOK 17/06 Q1021 NOSIG RMK OBS 1500FT-WIND 120/26KT


Station Type Date Time Source
LLBG Decoded METAR 2018/12/15 01:50 UTC NOAA

Ben-Gurion International Airport, Israel (LLBG) 32-00N 034-54E 49M
Dec 14, 2018 - 08:50 PM EST / 2018.12.15 0150 UTC
Wind: from the E (100 degrees) at 16 MPH (14 KT):0
Visibility: greater than 7 mile(s):0
Temperature: 62 F (17 C)
Dew Point: 42 F (6 C)
Relative Humidity: 48%
Pressure (altimeter): 30.15 in. Hg (1021 hPa)
ob: LLBG 150150Z 10014KT CAVOK 17/06 Q1021 NOSIG RMK OBS 1500FT-WIND 120/26KT
cycle: 2

Station Type Date Time Source
LLBG TAF 2018/12/14 18:09 UTC NOAA

TAF TAF LLBG 141702Z 1418/1518 02010KT CAVOK
BECMG 1420/1423 10012KT PROB40 1502/1508 10017KT TX24/1512Z TN12/1504Z


Example: see airport list